Rogers, AR

11:10 AM CDT on April 27, 2015 (GMT -0500)
NW Arkansas Airport | | Change Station
CLOSE
Current Station
Airport
Location: NW Arkansas Airport,
Elevation: 1286 ft
Nearby Weather Stations

Elev 1286 ft 36.28 °N, 94.31 °W | Updated 17 minutes ago

Overcast
Overcast
56 °F
Feels Like 56 °F
N
20
Wind Variable Wind from East
Gusts 29 mph

Today
High -- | Low -- °F
--% Chance of Precip.
Yesterday
High -- | Low -- °F
Precip. -- in
6:27 AM 8:00 PM
Waxing Gibbous, 66% visible
Pressure 29.98 in
Visibility 10.0 miles
Clouds Overcast 10000 ft
Dew Point 34 °F
Humidity 44%
Rainfall 0.13 in
Snow Depth Not available.
UV 2 out of 12
Pollen 10.10 out of 12
Air Quality Not available.
Flu Activity Sporadic
METAR KXNA 271553Z 08017G25KT 10SM -RA OVC100 13/01 A2999 RMK AO2 PK WND 07029/1457 SLP150 P0000 T01330011

More Conditions Fewer Conditions

Pressure 29.98 in
Visibility 10.0 miles
Clouds Overcast 10000 ft
Dew Point 34 °F
Humidity 44%
Rainfall 0.13 in
Snow Depth Not available.
UV 2 out of 12
Pollen 10.10 out of 12
Air Quality Not available.
Flu Activity Sporadic
METAR KXNA 271553Z 08017G25KT 10SM -RA OVC100 13/01 A2999 RMK AO2 PK WND 07029/1457 SLP150 P0000 T01330011

More Conditions Fewer Conditions

Nowcast | as of 10:59 am CDT on April 27, 2015

At 10:55 am... National Weather Service radars indicated that most of the light rain showers had ended across eastern Oklahoma and northwest Arkansas. Additional rain showers however, were developing while moving north at around 25 mph. Through 1:00 PM... light rain showers are expected to continue developing across south central Oklahoma and eventually begin generating over the southeast part of the state. Persistent eastward shifting of low pressure... churning in the Texas Panhandle... is expected to increase the aerial coverage and intensity of rain showers across central and eastern Oklahoma later this afternoon and tonight.

×

10-Day Weather Forecast

Almanac

Astronomy

Apr. 27, 2015 Rise Set
Actual Time
Civil Twilight
Nautical Twilight
Astronomical Twilight
Moon
Length of Visible Light
Length of Day
Tomorrow will be .
, % of the Moon is Illuminated

Today's Extremes

State Highs State Lows

Community

WunderPhotos

Upload Photos

1,817,335 photos uploaded!

WunderBlogs® & News

Nearby

Air Quality

  Air Quality AQ Index Pollutant
Not available.

Snow Depth

Station Depth Elevation

Earthquake Activity

City Distance Mag. Time & Date
Minimum magnitude displayed is 2.5.

Coastal Water Temperatures

Place Temperature

Stations

Nearby Weather Stations

Station Location Temp. Windchill Dew Point Humidity Wind Precip. Elev Updated Type